AirNav   Everest Fuels
 
 1358 users online  

W66 Port Angeles Seaplane Base
Port Angeles, Washington, USA

GOING TO PORT ANGELES?


FAA INFORMATION EFFECTIVE 18 JUNE 2020

Location

FAA Identifier: W66
Lat/Long: 48-07-00.1000N 123-24-47.3000W
48-07.001667N 123-24.788333W
48.1166944,-123.4131389
(estimated)
Elevation: 0 ft. / 0 m (estimated)
From city: 1 mile NE of PORT ANGELES, WA
Time zone: UTC -7 (UTC -8 during Standard Time)
Zip code: 98363

Seaplane Base Operations

Seaplane Base use: Open to the public
Activation date: 07/2019
Control tower: no
ARTCC: SEATTLE CENTER
FSS: SEATTLE FLIGHT SERVICE STATION
NOTAMs facility: SEA (NOTAM-D service not available)
Attendance: 
Segmented circle: no

Seaplane Base Communications

CTAF: 122.975
WX AWOS-3P at NOW (1.5 nm N): 118.325 (360-457-7529)
WX ASOS at CLM (3 nm W): 135.175 (360-457-1070)

Nearby radio navigation aids

VOR radial/distance  VOR name  Freq  Var
CVVr235/28.6PENN COVE VOR/DME117.2019E
YYJr159/36.7VICTORIA VOR/DME113.7017E

 
NDB name  Hdg/Dist  Freq  Var  ID
EDIZ HOOK179/1.433817ENOW -. --- .--
ELWHA085/10.551516ECL -.-. .-..
FRIDAY HARBOR196/28.428417EFHR ..-. .... .-.

Seaplane Base Services

Runway Information

Runway 11W/29W

Dimensions: 3200 x 999 ft. / 975 x 304 m
Surface: water
RUNWAY 11W  RUNWAY 29W
Traffic pattern: leftleft

Seaplane Base Ownership and Management from official FAA records

Ownership: Publicly-owned
Owner: PORT OF PORT ANGELES
338 W. FIRST ST. POB 1350
PORT ANGELES, WA 98362
Phone 360 457 8527
Manager: DANIEL GASE
338 W. FIRST ST. POB 1350
PORT ANGELES, WA 98362
Phone 360 417 3376

Seaplane Base Operational Statistics

Aircraft operations: 12/year
100% local general aviation

Additional Remarks

OWNER DESIRES ARPT BE CHARTED.

Instrument Procedures

There are no published instrument procedures at W66.

Some nearby airports with instrument procedures:

KNOW - Port Angeles Coast Guard Air Station Airport (1 nm N)
KCLM - William R Fairchild International Airport (3 nm W)
0S9 - Jefferson County International Airport (24 nm E)
KFHR - Friday Harbor Airport (29 nm NE)
KOKH - AJ Eisenberg Airport (31 nm E)
 
Loc | Ops | Rwys | IFR | FBO | Links
Com | Nav | Svcs | Stats | Notes
Aerial photo
No photo
 
Airport distance calculator
Flying to Port Angeles Seaplane Base? Find the distance to fly.

From to W66

Sunrise and sunset
Times for 02-Jul-2020
 Local
(UTC-7)
 Zulu
(UTC)
Morning civil twilight04:3911:39
Sunrise05:2012:20
Sunset21:1604:16
Evening civil twilight21:5704:57

Current date and time
Zulu (UTC)  02-Jul-2020 19:25:51
Local (UTC-7)  02-Jul-2020 12:25:51
 
METAR
KCLM 
3nm W 
021853Z AUTO 32008KT 10SM OVC024 14/09 A3001 RMK AO2 SLP160 T01390089
KNOW 
7nm W 
021850Z AUTO 30006KT 10SM OVC026 13/10 A3000 RMK AO2 T01320095
CWQK 
11nm N 
021800Z AUTO 28018KT 13/07 RMK AO1 PK WND 28023/1723 SLP149 T01290073 51011
CWPF 
18nm N 
021845Z AUTO 23009KT 15/07 RMK AO1 SLP147 T01490072 53005
CWLM 
18nm N 
021800Z AUTO 24009KT 16/08 RMK AO1 PK WND 27019/1734 SLP149 T01630081 52010
CYWH 
18nm N 
021800Z 25013KT 15SM FEW040 SCT090 BKN230 15/08 A2997 RMK SC3AC1CI2 SLP149
TAF
KCLM 
3nm W 
021721Z 0218/0318 31010G17KT P6SM OVC020 FM030000 30010G20KT P6SM OVC030 FM030500 27006KT P6SM OVC050 FM031200 29003KT P6SM OVC040 PROB30 0312/0316 5SM -RA OVC040
CYWH 
18nm N 
021511Z 0215/0302 28012G22KT P6SM FEW020 SCT070 BKN230 TEMPO 0215/0218 BKN020 FM021800 21012KT P6SM BKN040 TEMPO 0218/0302 BKN020 RMK NXT FCST BY 022100Z
NOTAMs
Click for the latest NOTAMs
NOTAMs are issued by the DoD/FAA and will open in a separate window not controlled by AirNav.

 

 
 

Would you like to see your business listed on this page?

 If your business provides an interesting product or service to pilots, flight crews, aircraft, or users of the Port Angeles Seaplane Base, you should consider listing it here.  To start the listing process, click on the button below
 
Add a business
 

Other Pages about Port Angeles Seaplane Base

Update a link
 
Copyright © AirNav, LLC. All rights reserved. Privacy Policy  Contact